Time;durP1;ratioP1;P1;durP2;ratioP2;P2;SDS_P1;SDS_P2;PMS_P1;PMS_P2;Temp;Humidity;BMP_temperature;BMP_pressure;BME280_temperature;BME280_humidity;BME280_pressure;Samples;Min_cycle;Max_cycle;Signal;HPM_P1;HPM_P2
2021/12/04 00:01:26;;;;;;;14.02;5.80;;;;;;;2.60;76.54;98877.59;5020478;28;20404;-82
2021/12/04 00:03:53;;;;;;;9.65;4.40;;;;;;;2.67;76.48;98867.50;5007524;28;20458;-83
2021/12/04 00:08:50;;;;;;;7.55;4.70;;;;;;;2.68;76.40;98856.09;5024457;28;20101;-83
2021/12/04 00:11:17;;;;;;;7.82;4.47;;;;;;;2.67;76.36;98843.91;5019344;28;20045;-82
2021/12/04 00:13:44;;;;;;;10.13;5.10;;;;;;;2.67;76.43;98836.03;5025997;28;20515;-83
2021/12/04 00:16:11;;;;;;;10.68;5.60;;;;;;;2.69;76.27;98842.00;5005227;28;20068;-83
2021/12/04 00:18:38;;;;;;;8.63;5.43;;;;;;;2.67;76.62;98831.66;5024790;28;20103;-83
2021/12/04 00:21:04;;;;;;;7.60;4.38;;;;;;;2.69;76.83;98819.25;5017197;28;20453;-83
2021/12/04 00:23:31;;;;;;;10.77;4.38;;;;;;;2.69;76.49;98808.78;5019015;28;20464;-82
2021/12/04 00:25:58;;;;;;;7.35;4.00;;;;;;;2.69;76.74;98813.19;5023195;28;20044;-83
2021/12/04 00:28:25;;;;;;;9.30;4.38;;;;;;;2.69;76.87;98816.63;4990020;28;20358;-83
2021/12/04 00:30:54;;;;;;;6.65;2.65;;;;;;;2.69;76.67;98810.56;5022487;28;20466;-83
2021/12/04 00:33:26;;;;;;;4.40;2.42;;;;;;;2.69;76.76;98807.94;5026776;28;20072;-82
2021/12/04 00:35:58;;;;;;;6.65;3.92;;;;;;;2.68;76.80;98801.88;5021913;28;20041;-83
2021/12/04 00:49:26;;;;;;;16.67;8.00;;;;;;;2.70;76.87;98780.81;5005095;28;20076;-82
2021/12/04 00:51:54;;;;;;;19.45;10.40;;;;;;;2.70;76.73;98768.53;5014696;28;20052;-82
2021/12/04 00:54:23;;;;;;;19.98;8.15;;;;;;;2.70;76.76;98762.44;5025677;28;20060;-82
2021/12/04 00:56:50;;;;;;;13.35;7.35;;;;;;;2.71;76.86;98764.13;4992364;28;20046;-83
2021/12/04 00:59:16;;;;;;;17.10;8.10;;;;;;;2.71;76.75;98758.88;5026285;28;20049;-82
2021/12/04 01:01:45;;;;;;;17.77;9.52;;;;;;;2.70;76.96;98750.19;5009865;28;20038;-83
2021/12/04 01:04:15;;;;;;;19.83;9.73;;;;;;;2.72;77.07;98750.03;5009064;28;20496;-83
2021/12/04 01:06:59;;;;;;;17.00;8.60;;;;;;;2.72;76.99;98755.28;5016149;28;20404;-82
2021/12/04 01:09:44;;;;;;;19.17;9.73;;;;;;;2.70;77.28;98749.34;5002369;28;20044;-82
2021/12/04 01:12:11;;;;;;;12.98;7.43;;;;;;;2.71;77.13;98746.59;5042544;28;20057;-83
2021/12/04 01:14:38;;;;;;;15.05;9.02;;;;;;;2.71;77.06;98740.53;5025948;28;20073;-83
2021/12/04 01:17:05;;;;;;;16.33;9.23;;;;;;;2.71;77.09;98741.34;5024316;28;20373;-82
2021/12/04 01:19:32;;;;;;;19.73;9.77;;;;;;;2.73;77.33;98744.69;5027104;28;20049;-83
2021/12/04 01:21:59;;;;;;;19.02;8.70;;;;;;;2.74;77.15;98732.44;5026663;28;20049;-83
2021/12/04 01:24:25;;;;;;;22.90;9.50;;;;;;;2.74;77.17;98751.59;5008501;28;20045;-82
2021/12/04 01:26:52;;;;;;;15.98;9.65;;;;;;;2.74;77.28;98756.84;5028667;28;20489;-82
2021/12/04 01:29:19;;;;;;;18.48;8.85;;;;;;;2.74;77.28;98732.44;5005117;28;20045;-82
2021/12/04 01:31:46;;;;;;;19.88;9.38;;;;;;;2.74;77.05;98738.50;5008072;28;20049;-82
2021/12/04 01:34:13;;;;;;;18.33;9.45;;;;;;;2.74;77.15;98733.25;5040056;28;20045;-83
2021/12/04 01:36:40;;;;;;;15.40;7.80;;;;;;;2.76;77.36;98722.66;5043326;28;20055;-82
2021/12/04 01:39:08;;;;;;;14.02;8.00;;;;;;;2.75;77.04;98727.09;5009551;28;20048;-82
2021/12/04 01:41:34;;;;;;;14.82;7.65;;;;;;;2.75;76.82;98718.38;5039750;28;20037;-82
2021/12/04 01:44:03;;;;;;;13.07;6.80;;;;;;;2.74;76.72;98712.28;5027032;28;20432;-83
2021/12/04 01:46:31;;;;;;;12.90;6.20;;;;;;;2.73;77.02;98715.88;4988146;28;20042;-83
2021/12/04 01:48:57;;;;;;;13.85;6.18;;;;;;;2.74;76.73;98707.03;5039191;28;20489;-83
2021/12/04 01:51:24;;;;;;;9.68;5.55;;;;;;;2.74;76.67;98701.78;5022721;28;20042;-83
2021/12/04 01:53:51;;;;;;;8.82;4.78;;;;;;;2.74;76.93;98691.31;5026117;28;20057;-83
2021/12/04 01:56:18;;;;;;;11.27;5.20;;;;;;;2.75;76.82;98693.00;5009672;28;20570;-83
2021/12/04 01:58:45;;;;;;;10.20;5.43;;;;;;;2.76;77.14;98692.03;5007573;28;20049;-83
2021/12/04 02:01:11;;;;;;;14.32;5.97;;;;;;;2.76;77.27;98689.41;5022842;28;20060;-83
2021/12/04 02:03:38;;;;;;;10.13;6.07;;;;;;;2.75;77.29;98677.28;5023955;28;20065;-83
2021/12/04 02:06:05;;;;;;;11.77;6.13;;;;;;;2.76;77.40;98672.88;4991178;28;20405;-84
2021/12/04 02:08:32;;;;;;;14.00;6.38;;;;;;;2.75;77.06;98664.16;5014147;28;20053;-83
2021/12/04 02:11:00;;;;;;;9.07;5.68;;;;;;;2.74;77.31;98665.09;5008815;28;20101;-82
2021/12/04 02:13:27;;;;;;;11.63;6.05;;;;;;;2.76;77.19;98659.75;5022160;28;20053;-82
2021/12/04 02:15:54;;;;;;;12.93;6.15;;;;;;;2.76;77.24;98652.72;5013678;28;20056;-84
2021/12/04 02:18:21;;;;;;;12.93;6.00;;;;;;;2.76;77.59;98647.47;5029262;28;20041;-82
2021/12/04 02:20:49;;;;;;;15.40;7.85;;;;;;;2.76;77.60;98649.28;5036610;28;20097;-83
2021/12/04 02:24:08;;;;;;;13.60;6.65;;;;;;;2.68;77.44;98652.47;5022967;28;20049;-83
2021/12/04 02:26:35;;;;;;;10.40;6.43;;;;;;;2.74;77.57;98652.00;4990605;28;20063;-83
2021/12/04 02:29:02;;;;;;;10.18;6.10;;;;;;;2.74;77.35;98643.31;5040057;28;20045;-83
2021/12/04 02:31:29;;;;;;;14.35;5.80;;;;;;;2.73;77.44;98642.47;5041577;28;20065;-83
2021/12/04 02:33:56;;;;;;;11.88;6.72;;;;;;;2.74;77.59;98646.75;5027502;28;20041;-83
2021/12/04 02:36:22;;;;;;;12.35;6.88;;;;;;;2.73;77.23;98652.97;5040531;28;20041;-82
2021/12/04 02:38:51;;;;;;;10.98;6.35;;;;;;;2.73;77.34;98655.56;5041476;28;20270;-83
2021/12/04 02:41:20;;;;;;;13.13;6.93;;;;;;;2.74;77.62;98641.50;5041437;28;20034;-82
2021/12/04 02:43:47;;;;;;;13.32;8.15;;;;;;;2.74;77.38;98643.31;5019971;28;20121;-83
2021/12/04 02:46:15;;;;;;;17.55;9.68;;;;;;;2.73;77.53;98636.41;5010637;28;20053;-82
2021/12/04 02:48:43;;;;;;;16.70;8.95;;;;;;;2.73;77.52;98644.25;5022626;28;20132;-82
2021/12/04 02:51:11;;;;;;;18.20;9.43;;;;;;;2.72;77.41;98638.19;5022416;28;20041;-82
2021/12/04 02:53:38;;;;;;;20.88;9.98;;;;;;;2.72;77.53;98629.47;5027275;28;20632;-82
2021/12/04 02:56:05;;;;;;;17.00;8.52;;;;;;;2.70;77.30;98619.13;5056232;28;20045;-83
2021/12/04 02:58:33;;;;;;;16.98;10.15;;;;;;;2.69;77.29;98614.81;5041550;28;20498;-82
2021/12/04 03:01:01;;;;;;;16.35;8.65;;;;;;;2.70;77.35;98602.56;5008239;28;20049;-82
2021/12/04 03:03:31;;;;;;;13.25;8.85;;;;;;;2.70;77.33;98594.69;5025473;28;20085;-82
2021/12/04 03:05:58;;;;;;;19.70;10.65;;;;;;;2.67;77.14;98590.53;5040386;28;20053;-83
2021/12/04 03:08:25;;;;;;;21.00;11.05;;;;;;;2.67;77.34;98590.53;5025124;28;20042;-82
2021/12/04 03:10:53;;;;;;;18.73;10.18;;;;;;;2.67;77.21;98580.03;5031777;28;20161;-83
2021/12/04 03:13:21;;;;;;;17.05;9.85;;;;;;;2.66;77.34;98578.34;5025040;28;20038;-83
2021/12/04 03:15:56;;;;;;;19.60;9.15;;;;;;;2.65;77.40;98573.25;5024549;28;20057;-82
2021/12/04 03:18:23;;;;;;;15.80;9.02;;;;;;;2.64;77.14;98566.31;5023669;28;20049;-82
2021/12/04 03:20:53;;;;;;;20.15;11.00;;;;;;;2.64;77.43;98556.66;5024266;28;20124;-82
2021/12/04 03:23:30;;;;;;;17.80;9.52;;;;;;;2.63;77.06;98555.00;5027082;28;20037;-82
2021/12/04 03:30:39;;;;;;;13.73;7.38;;;;;;;2.54;77.36;98545.22;4995968;28;20104;-82
2021/12/04 03:41:06;;;;;;;10.52;6.65;;;;;;;2.55;77.31;98534.63;5029006;28;20531;-82
2021/12/04 03:43:33;;;;;;;13.20;6.90;;;;;;;2.56;77.41;98533.66;5021594;28;20041;-82
2021/12/04 03:46:04;;;;;;;17.15;7.45;;;;;;;2.58;77.61;98523.06;5022842;28;20501;-82
2021/12/04 03:51:04;;;;;;;10.82;6.78;;;;;;;2.55;77.66;98507.59;5041564;28;20050;-82
2021/12/04 03:53:30;;;;;;;11.63;6.25;;;;;;;2.57;77.20;98505.66;5006544;28;20046;-82
2021/12/04 03:55:58;;;;;;;13.45;7.28;;;;;;;2.56;77.27;98506.63;5008857;28;20493;-81
2021/12/04 03:58:24;;;;;;;14.07;6.63;;;;;;;2.56;77.39;98504.00;5023797;28;20366;-81
2021/12/04 04:00:52;;;;;;;12.43;6.72;;;;;;;2.56;77.29;98499.59;5023056;28;20053;-82
2021/12/04 04:03:19;;;;;;;11.73;6.63;;;;;;;2.56;77.38;98490.91;5024625;28;20045;-82
2021/12/04 04:05:46;;;;;;;14.10;7.15;;;;;;;2.55;77.54;98490.09;5022464;28;20508;-82
2021/12/04 04:08:14;;;;;;;13.25;7.07;;;;;;;2.56;77.28;98485.66;5020693;28;20045;-81
2021/12/04 04:10:42;;;;;;;11.75;6.72;;;;;;;2.54;77.47;98483.16;5024522;28;21059;-81
2021/12/04 04:13:11;;;;;;;14.05;7.47;;;;;;;2.54;77.64;98477.09;5007667;28;20457;-82
2021/12/04 04:15:39;;;;;;;15.82;7.60;;;;;;;2.53;77.29;98472.81;5026162;28;20042;-82
2021/12/04 04:18:06;;;;;;;11.68;6.53;;;;;;;2.53;77.58;98472.81;5027045;28;20222;-82
2021/12/04 04:20:33;;;;;;;9.90;5.90;;;;;;;2.52;77.52;98474.59;5027058;28;20500;-82
2021/12/04 04:22:59;;;;;;;11.40;6.05;;;;;;;2.53;77.83;98470.19;5025396;28;20044;-82
2021/12/04 04:25:26;;;;;;;11.68;6.72;;;;;;;2.53;77.63;98462.34;5030148;28;20038;-82
2021/12/04 04:27:53;;;;;;;11.32;5.97;;;;;;;2.54;77.69;98459.56;5025118;28;20053;-82
2021/12/04 04:35:37;;;;;;;9.60;6.13;;;;;;;2.43;77.54;98453.50;5019990;28;20127;-82
2021/12/04 04:38:17;;;;;;;11.95;6.65;;;;;;;2.49;77.52;98456.47;5012094;28;20160;-82
2021/12/04 05:02:34;;;;;;;12.50;7.30;;;;;;;2.47;77.89;98410.38;4984906;28;20042;-82
2021/12/04 05:13:22;;;;;;;11.60;7.05;;;;;;;2.47;77.81;98399.91;5027432;28;20038;-82
2021/12/04 05:18:23;;;;;;;11.23;5.90;;;;;;;2.48;77.92;98397.19;5025771;28;20049;-82
2021/12/04 05:20:54;;;;;;;12.27;6.90;;;;;;;2.47;78.25;98398.16;5017537;28;22844;-81
2021/12/04 05:23:22;;;;;;;14.60;7.25;;;;;;;2.47;77.99;98398.16;5030693;28;20049;-82
2021/12/04 05:25:50;;;;;;;13.50;7.60;;;;;;;2.48;78.05;98405.03;5011874;28;20378;-82
2021/12/04 05:28:17;;;;;;;12.10;6.60;;;;;;;2.48;78.10;98405.03;5002998;28;20397;-81
2021/12/04 05:30:44;;;;;;;12.07;7.50;;;;;;;2.47;78.22;98395.53;5005761;28;20135;-81
2021/12/04 05:33:11;;;;;;;11.93;6.53;;;;;;;2.49;77.90;98395.38;5009606;28;20128;-82
2021/12/04 05:35:38;;;;;;;11.35;6.65;;;;;;;2.48;78.15;98389.31;5026444;28;20045;-81
2021/12/04 05:38:05;;;;;;;14.48;7.05;;;;;;;2.48;78.21;98386.69;5025041;28;20049;-82
2021/12/04 05:40:32;;;;;;;11.20;6.50;;;;;;;2.49;78.20;98390.16;5024084;28;20408;-81
2021/12/04 05:43:02;;;;;;;13.13;7.07;;;;;;;2.49;78.23;98377.88;5028121;28;20049;-81
2021/12/04 05:45:32;;;;;;;11.73;5.80;;;;;;;2.49;78.23;98380.50;5020416;28;20408;-81
2021/12/04 05:53:56;;;;;;;10.02;5.90;;;;;;;2.48;78.16;98370.16;5027220;28;20041;-81
2021/12/04 05:56:23;;;;;;;12.07;6.32;;;;;;;2.49;78.33;98369.19;5011319;28;20065;-81
2021/12/04 05:58:50;;;;;;;12.73;6.65;;;;;;;2.49;78.36;98362.16;5006506;28;20437;-81
2021/12/04 06:01:19;;;;;;;12.63;6.28;;;;;;;2.49;78.14;98367.38;5020176;28;20080;-81
2021/12/04 06:03:45;;;;;;;12.20;6.38;;;;;;;2.49;78.36;98372.63;5023956;28;20052;-81
2021/12/04 06:06:12;;;;;;;10.73;5.95;;;;;;;2.50;78.16;98369.06;5024598;28;20039;-80
2021/12/04 06:08:39;;;;;;;13.73;6.28;;;;;;;2.50;78.41;98370.88;5037971;28;20522;-81
2021/12/04 06:11:06;;;;;;;13.85;6.32;;;;;;;2.51;78.30;98372.53;5025495;28;20080;-81
2021/12/04 06:13:33;;;;;;;13.88;7.03;;;;;;;2.51;78.09;98372.53;5007932;28;20389;-81
2021/12/04 06:16:00;;;;;;;13.57;6.65;;;;;;;2.50;78.14;98365.63;5039618;28;20037;-81
2021/12/04 06:18:27;;;;;;;12.32;6.93;;;;;;;2.51;78.36;98364.66;5004735;28;20052;-80
2021/12/04 06:23:40;;;;;;;13.02;6.47;;;;;;;2.50;78.45;98345.50;5015405;28;20037;-80
2021/12/04 06:29:49;;;;;;;12.45;6.18;;;;;;;2.48;78.25;98334.31;5005431;28;20160;-81
2021/12/04 06:32:16;;;;;;;10.05;5.63;;;;;;;2.49;78.47;98330.72;5024362;28;20053;-81
2021/12/04 06:34:42;;;;;;;11.35;5.97;;;;;;;2.50;78.54;98326.31;5040385;28;20049;-81
2021/12/04 06:37:12;;;;;;;11.55;6.75;;;;;;;2.50;78.14;98327.16;5035134;28;20045;-81
2021/12/04 06:39:38;;;;;;;11.02;6.03;;;;;;;2.51;78.49;98330.59;5022155;28;20049;-81
2021/12/04 06:42:06;;;;;;;14.10;7.30;;;;;;;2.50;78.51;98327.16;5022948;28;20046;-81
2021/12/04 06:44:33;;;;;;;13.48;7.13;;;;;;;2.50;78.49;98328.94;5011016;28;20053;-81
2021/12/04 06:47:05;;;;;;;10.52;6.00;;;;;;;2.50;78.41;98321.91;5025314;28;20045;-81
2021/12/04 06:49:34;;;;;;;13.73;7.47;;;;;;;2.51;78.58;98323.56;5040190;28;20120;-81
2021/12/04 06:52:04;;;;;;;13.02;7.03;;;;;;;2.51;78.60;98322.75;5035264;28;20496;-81
2021/12/04 06:54:40;;;;;;;10.57;5.43;;;;;;;2.50;78.45;98321.91;5024620;28;20045;-82
2021/12/04 06:57:11;;;;;;;12.63;6.28;;;;;;;2.50;78.61;98313.22;5029611;28;20056;-81
2021/12/04 06:59:40;;;;;;;11.98;6.57;;;;;;;2.50;78.59;98321.91;5024720;28;20041;-82
2021/12/04 07:02:06;;;;;;;11.25;6.03;;;;;;;2.51;78.36;98327.97;5023393;28;20562;-81
2021/12/04 07:04:37;;;;;;;15.65;8.05;;;;;;;2.51;78.38;98314.88;5009355;28;20050;-81
2021/12/04 07:07:05;;;;;;;13.65;6.85;;;;;;;2.51;78.61;98322.75;5023414;28;20118;-80
2021/12/04 07:09:33;;;;;;;12.02;6.85;;;;;;;2.51;78.63;98314.88;5038705;28;20068;-80
2021/12/04 07:12:00;;;;;;;13.00;6.82;;;;;;;2.50;78.35;98310.59;5020998;28;20072;-80
2021/12/04 07:14:27;;;;;;;12.68;6.90;;;;;;;2.49;78.56;98312.38;5055968;28;20124;-80
2021/12/04 07:17:02;;;;;;;13.20;6.80;;;;;;;2.47;78.32;98305.59;5038873;28;20041;-80
2021/12/04 07:19:30;;;;;;;12.45;6.75;;;;;;;2.50;78.54;98300.13;5019030;28;20057;-79
2021/12/04 07:21:57;;;;;;;11.75;7.00;;;;;;;2.49;78.46;98309.75;4984444;28;20088;-80
2021/12/04 07:24:25;;;;;;;13.32;7.25;;;;;;;2.49;78.64;98301.06;5030880;28;20229;-80
2021/12/04 07:26:52;;;;;;;13.20;7.63;;;;;;;2.49;78.64;98309.75;5018732;28;20390;-80
2021/12/04 07:29:21;;;;;;;14.25;7.70;;;;;;;2.49;78.55;98303.69;5018222;28;20052;-79
2021/12/04 07:31:48;;;;;;;16.38;8.00;;;;;;;2.49;78.47;98307.13;5022350;28;20056;-80
2021/12/04 07:34:16;;;;;;;11.85;6.28;;;;;;;2.50;78.67;98302.75;5004676;28;20413;-80
2021/12/04 07:36:44;;;;;;;14.63;7.57;;;;;;;2.50;78.82;98294.88;4999056;28;20038;-80
2021/12/04 07:39:10;;;;;;;15.13;7.72;;;;;;;2.50;78.84;98303.56;5022602;28;20050;-80
2021/12/04 07:41:42;;;;;;;11.75;6.75;;;;;;;2.49;78.75;98304.50;5041204;28;20042;-80
2021/12/04 07:44:10;;;;;;;11.82;6.55;;;;;;;2.50;78.76;98298.34;5027406;28;20048;-82
2021/12/04 07:46:38;;;;;;;12.77;7.30;;;;;;;2.49;78.66;98299.28;5028681;28;20041;-79
2021/12/04 07:49:06;;;;;;;14.05;6.07;;;;;;;2.50;78.78;98297.50;5031816;28;20037;-79
2021/12/04 07:51:33;;;;;;;12.88;6.93;;;;;;;2.51;78.86;98296.53;5021436;28;20042;-79
2021/12/04 07:54:00;;;;;;;11.95;6.80;;;;;;;2.50;78.71;98293.09;5023364;28;20049;-79
2021/12/04 07:56:27;;;;;;;10.15;6.10;;;;;;;2.51;79.08;98293.91;5025655;28;20112;-79
2021/12/04 07:58:54;;;;;;;11.95;6.13;;;;;;;2.51;78.98;98291.31;5023941;28;20890;-79
2021/12/04 08:01:21;;;;;;;13.93;7.82;;;;;;;2.52;79.02;98292.97;5021831;28;20041;-79
2021/12/04 08:03:48;;;;;;;12.63;6.63;;;;;;;2.51;78.80;98288.69;5026356;28;20604;-79
2021/12/04 08:06:15;;;;;;;11.38;6.60;;;;;;;2.50;79.12;98285.22;5017819;28;20049;-79
2021/12/04 08:08:43;;;;;;;10.75;5.72;;;;;;;2.52;79.20;98290.34;5026865;28;20042;-79
2021/12/04 08:11:10;;;;;;;9.98;5.88;;;;;;;2.51;79.21;98284.28;5020338;28;20057;-79
2021/12/04 08:13:37;;;;;;;11.02;6.13;;;;;;;2.52;78.90;98279.84;5026348;28;20056;-79
2021/12/04 08:16:03;;;;;;;14.82;6.97;;;;;;;2.52;79.12;98279.84;5023923;28;20053;-80
2021/12/04 08:18:30;;;;;;;13.18;6.68;;;;;;;2.52;78.99;98282.47;5010303;28;20054;-79
2021/12/04 08:20:58;;;;;;;11.48;6.28;;;;;;;2.52;79.03;98280.72;5013076;28;20494;-79
2021/12/04 08:23:25;;;;;;;11.00;5.95;;;;;;;2.52;79.20;98282.47;5030997;28;20052;-79
2021/12/04 08:25:53;;;;;;;11.57;6.72;;;;;;;2.51;79.18;98272.97;5020192;28;20095;-79
2021/12/04 08:28:20;;;;;;;12.98;7.03;;;;;;;2.52;79.52;98274.63;5021658;28;20038;-79
2021/12/04 08:30:46;;;;;;;13.70;6.30;;;;;;;2.52;79.63;98277.22;5024906;28;20049;-79
2021/12/04 08:33:13;;;;;;;12.18;6.75;;;;;;;2.52;79.47;98272.00;5021566;28;20049;-79
2021/12/04 08:35:40;;;;;;;10.52;6.38;;;;;;;2.54;79.31;98270.09;5019309;28;20046;-79
2021/12/04 08:38:08;;;;;;;11.27;6.43;;;;;;;2.53;79.35;98266.63;5024880;28;20440;-79
2021/12/04 08:40:35;;;;;;;12.40;6.25;;;;;;;2.52;79.85;98272.00;5021917;28;20045;-78
2021/12/04 08:43:02;;;;;;;10.77;5.78;;;;;;;2.52;79.75;98274.63;5038148;28;20041;-78
2021/12/04 08:45:29;;;;;;;10.73;5.47;;;;;;;2.52;79.92;98270.22;5038981;28;20050;-78
2021/12/04 08:47:57;;;;;;;11.07;5.70;;;;;;;2.54;79.55;98270.91;5015053;28;20655;-78
2021/12/04 08:50:28;;;;;;;10.48;5.63;;;;;;;2.56;79.82;98265.56;5025108;28;20057;-78
2021/12/04 08:52:55;;;;;;;13.52;7.32;;;;;;;2.56;79.64;98263.78;5020840;28;20107;-78
2021/12/04 08:55:23;;;;;;;14.05;7.57;;;;;;;2.57;80.05;98270.69;5020123;28;20045;-77
2021/12/04 08:57:50;;;;;;;15.18;7.60;;;;;;;2.59;79.99;98258.28;5021032;28;20050;-78
2021/12/04 09:00:23;;;;;;;14.15;8.23;;;;;;;2.57;80.12;98268.06;4996409;28;20060;-81
2021/12/04 09:02:51;;;;;;;13.70;8.55;;;;;;;2.58;79.92;98268.91;5007394;28;20041;-80
2021/12/04 09:05:21;;;;;;;13.05;7.20;;;;;;;2.58;79.82;98266.28;5039975;28;20099;-80
2021/12/04 09:07:49;;;;;;;15.00;7.35;;;;;;;2.58;79.84;98269.72;5023013;28;20041;-80
2021/12/04 09:10:17;;;;;;;17.20;8.93;;;;;;;2.59;80.08;98260.91;5007629;28;20045;-79
2021/12/04 09:12:45;;;;;;;13.93;7.75;;;;;;;2.61;80.30;98252.91;5040331;28;20061;-80
2021/12/04 09:15:20;;;;;;;16.02;7.32;;;;;;;2.58;80.07;98266.28;5022237;28;20134;-80
2021/12/04 09:17:47;;;;;;;16.45;8.73;;;;;;;2.63;80.07;98263.28;5000725;28;20117;-80
2021/12/04 09:20:16;;;;;;;13.70;7.78;;;;;;;2.60;80.11;98267.81;5034952;28;20064;-80
2021/12/04 09:22:45;;;;;;;12.50;7.63;;;;;;;2.61;80.30;98266.84;5006662;28;20048;-80
2021/12/04 09:25:16;;;;;;;12.98;7.95;;;;;;;2.61;80.24;98259.00;5024705;28;20099;-79
2021/12/04 10:06:10;;;;;;;16.30;9.13;;;;;;;2.62;80.87;98204.81;5034126;28;20038;-79
2021/12/04 10:14:18;;;;;;;15.63;7.07;;;;;;;2.64;81.12;98188.94;5017699;28;20049;-79
2021/12/04 10:33:54;;;;;;;10.23;5.68;;;;;;;2.65;81.63;98167.88;5011369;28;20086;-78
2021/12/04 10:36:32;;;;;;;10.32;6.15;;;;;;;2.62;81.57;98165.50;4941713;28;21056;-79
2021/12/04 10:39:00;;;;;;;12.00;6.90;;;;;;;2.68;81.67;98154.50;4938289;28;20046;-79
2021/12/04 10:41:33;;;;;;;10.52;5.80;;;;;;;2.67;81.69;98152.84;4980191;28;20522;-78
2021/12/04 10:44:21;;;;;;;12.38;7.07;;;;;;;2.63;82.06;98148.81;4959927;28;20109;-79
2021/12/04 10:47:04;;;;;;;11.45;6.15;;;;;;;2.66;81.94;98140.69;4939970;28;20053;-79
2021/12/04 11:23:56;;;;;;;10.48;5.85;;;;;;;2.76;82.79;98056.91;5037002;28;20065;-79
2021/12/04 11:26:47;;;;;;;8.48;5.10;;;;;;;2.69;83.01;98059.19;4989579;28;20049;-79
2021/12/04 11:40:23;;;;;;;9.38;5.57;;;;;;;2.79;82.95;98038.28;4985243;28;20052;-78
2021/12/04 11:43:02;;;;;;;13.50;7.38;;;;;;;2.79;83.13;98035.66;5003786;28;20038;-78
2021/12/04 11:46:02;;;;;;;11.85;6.38;;;;;;;2.79;83.02;98026.00;5021101;28;20049;-78
2021/12/04 11:48:38;;;;;;;12.02;6.80;;;;;;;2.81;83.48;98031.13;5019567;28;20046;-78
2021/12/04 11:51:11;;;;;;;12.35;7.47;;;;;;;2.81;83.18;98023.25;5038204;28;20049;-78
2021/12/04 11:53:38;;;;;;;12.77;6.93;;;;;;;2.86;83.46;98013.22;5017274;28;20158;-78
2021/12/04 11:56:05;;;;;;;14.25;6.57;;;;;;;2.87;83.28;98009.59;5004739;28;20099;-79
2021/12/04 11:58:40;;;;;;;12.35;6.63;;;;;;;2.86;83.56;98012.38;5002754;28;20046;-78
2021/12/04 12:01:31;;;;;;;15.18;7.32;;;;;;;2.84;83.62;98009.88;5020101;28;21603;-78
2021/12/04 12:04:10;;;;;;;12.27;6.53;;;;;;;2.81;83.91;98015.38;5017925;28;20049;-78
2021/12/04 12:06:40;;;;;;;14.35;7.13;;;;;;;2.85;83.91;98008.09;5019520;28;20045;-78
2021/12/04 12:09:27;;;;;;;11.77;6.47;;;;;;;2.82;83.97;97994.31;5019628;28;20379;-78
2021/12/04 12:11:58;;;;;;;15.73;7.95;;;;;;;2.87;83.79;97988.63;5007279;28;20042;-78
2021/12/04 12:14:45;;;;;;;13.75;7.72;;;;;;;2.85;84.05;97990.59;5002553;28;20489;-78
2021/12/04 12:17:12;;;;;;;13.02;7.00;;;;;;;2.89;84.10;97991.13;5018703;28;20049;-78
2021/12/04 12:19:48;;;;;;;13.35;6.82;;;;;;;2.90;83.89;97990.16;4999415;28;20106;-80
2021/12/04 12:22:35;;;;;;;10.80;6.28;;;;;;;2.99;85.15;97976.28;5016361;28;20052;-78
2021/12/04 12:25:29;;;;;;;12.73;6.22;;;;;;;2.99;84.96;97974.47;4990167;28;20100;-78
2021/12/04 12:31:49;;;;;;;;;;;;;;;2.87;85.21;97962.44;5015284;28;20054;-79
2021/12/04 12:33:45;;;;;;;12.55;5.45;;;;;;;2.96;84.38;97947.69;4981237;28;20111;-78
2021/12/04 12:36:15;;;;;;;8.25;5.13;;;;;;;2.98;84.50;97949.22;5021406;28;20053;-78
2021/12/04 12:38:52;;;;;;;9.30;5.63;;;;;;;2.97;84.49;97952.78;5022609;28;20420;-79
2021/12/04 12:41:30;;;;;;;8.65;4.90;;;;;;;2.96;84.37;97948.53;5016489;28;20655;-79
2021/12/04 12:44:18;;;;;;;9.25;5.30;;;;;;;2.98;84.49;97932.69;5024506;28;20045;-78
2021/12/04 12:46:48;;;;;;;8.63;5.38;;;;;;;3.01;84.60;97932.41;5003590;28;20040;-78
2021/12/04 12:49:37;;;;;;;10.80;5.55;;;;;;;2.97;84.81;97937.06;5011113;28;20044;-79
2021/12/04 12:52:14;;;;;;;8.65;5.25;;;;;;;3.00;84.76;97923.72;5038052;28;20052;-80
2021/12/04 12:54:46;;;;;;;10.23;5.25;;;;;;;3.03;84.71;97926.06;5040230;28;20056;-80
2021/12/04 12:57:28;;;;;;;9.32;5.47;;;;;;;3.02;84.65;97926.19;5002082;28;20099;-80
2021/12/04 13:11:43;;;;;;;12.87;6.10;;;;;;;3.03;85.28;97909.50;4983887;28;20493;-81
2021/12/04 13:14:20;;;;;;;10.45;6.78;;;;;;;3.01;85.27;97907.00;5033784;28;20042;-82
2021/12/04 13:16:52;;;;;;;11.93;6.15;;;;;;;3.03;85.27;97912.13;5054718;28;20535;-80
2021/12/04 13:19:21;;;;;;;12.23;6.72;;;;;;;3.07;85.45;97910.88;5022444;28;20052;-81
2021/12/04 13:21:50;;;;;;;11.20;6.50;;;;;;;3.07;85.73;97910.06;5032594;28;20045;-86
2021/12/04 13:24:23;;;;;;;11.70;6.80;;;;;;;3.06;85.20;97911.03;5017916;28;20489;-85
2021/12/04 13:26:52;;;;;;;10.70;5.72;;;;;;;3.08;85.45;97901.19;5039457;28;20064;-82
2021/12/04 13:29:23;;;;;;;10.82;5.90;;;;;;;3.10;85.46;97901.91;5006677;28;20045;-82
2021/12/04 13:31:56;;;;;;;12.60;6.93;;;;;;;3.10;85.44;97909.78;5019753;28;20119;-79
2021/12/04 13:34:29;;;;;;;10.98;6.72;;;;;;;3.10;85.44;97902.72;5017181;28;20046;-82
2021/12/04 13:36:56;;;;;;;10.93;6.47;;;;;;;3.14;85.25;97898.88;4990471;28;20068;-85
2021/12/04 13:39:23;;;;;;;12.25;6.85;;;;;;;3.17;85.69;97895.97;5025782;28;20041;-84
2021/12/04 13:41:52;;;;;;;12.85;7.38;;;;;;;3.17;85.47;97895.97;5018645;28;20112;-82
2021/12/04 13:44:20;;;;;;;14.27;8.05;;;;;;;3.17;85.37;97890.72;5024276;28;20412;-83
2021/12/04 13:46:52;;;;;;;14.73;7.88;;;;;;;3.17;85.59;97889.91;5039845;28;20041;-82
2021/12/04 13:49:34;;;;;;;12.43;7.03;;;;;;;3.13;85.39;97883.25;5028427;28;20064;-82
2021/12/04 13:52:12;;;;;;;12.68;7.22;;;;;;;3.14;85.59;97882.31;5033262;28;20043;-82
2021/12/04 13:54:43;;;;;;;22.17;8.48;;;;;;;3.19;85.67;97882.75;5041090;28;20680;-80
2021/12/04 13:57:11;;;;;;;12.35;6.90;;;;;;;3.20;85.46;97876.50;5021492;28;20048;-81
2021/12/04 13:59:38;;;;;;;12.30;6.88;;;;;;;3.21;85.80;97879.00;5042500;28;20049;-79
2021/12/04 14:02:05;;;;;;;12.40;7.07;;;;;;;3.21;85.81;97876.38;5024465;28;20045;-84
2021/12/04 14:04:33;;;;;;;10.68;6.70;;;;;;;3.23;85.60;97884.09;5007005;28;20037;-84
2021/12/04 14:07:02;;;;;;;10.65;6.80;;;;;;;3.23;85.85;97882.34;5023683;28;20045;-82
2021/12/04 14:09:37;;;;;;;11.35;6.13;;;;;;;3.20;85.75;97874.72;5027600;28;20057;-81
2021/12/04 14:12:05;;;;;;;12.35;6.68;;;;;;;3.25;85.67;97882.19;5003161;28;20041;-81
2021/12/04 14:14:34;;;;;;;10.00;6.55;;;;;;;3.25;85.75;97877.75;5019999;28;20045;-82
2021/12/04 14:17:11;;;;;;;13.13;7.20;;;;;;;3.23;85.64;97874.47;5025685;28;20366;-81
2021/12/04 14:19:38;;;;;;;10.27;6.22;;;;;;;3.26;85.92;97879.44;5003887;28;20045;-81
2021/12/04 14:22:15;;;;;;;12.10;6.40;;;;;;;3.24;85.65;97870.03;5021861;28;20046;-81
2021/12/04 14:24:49;;;;;;;9.38;5.78;;;;;;;3.26;85.86;97870.75;4994236;28;20054;-81
2021/12/04 14:27:22;;;;;;;11.05;6.30;;;;;;;3.24;85.91;97868.25;5033373;28;20048;-81
2021/12/04 14:30:23;;;;;;;9.55;5.93;;;;;;;3.19;86.12;97880.13;5016491;28;20494;-81
2021/12/04 14:32:53;;;;;;;13.82;6.38;;;;;;;3.26;85.88;97897.78;4990809;28;20041;-81
2021/12/04 14:35:22;;;;;;;13.57;7.20;;;;;;;3.27;86.06;97893.38;5004098;28;20496;-81
2021/12/04 14:37:52;;;;;;;9.45;5.90;;;;;;;3.25;86.05;97893.50;5001959;28;20099;-81
2021/12/04 14:40:27;;;;;;;11.65;6.70;;;;;;;3.24;86.08;97891.84;5014241;28;20049;-81
2021/12/04 14:42:54;;;;;;;10.43;5.97;;;;;;;3.29;86.09;97898.50;4983431;28;20050;-79
2021/12/04 14:45:28;;;;;;;12.05;7.13;;;;;;;3.27;86.28;97890.75;5037716;28;20447;-81
2021/12/04 14:48:08;;;;;;;10.20;6.45;;;;;;;3.26;86.08;97894.34;5007012;28;20042;-81
2021/12/04 14:50:43;;;;;;;13.95;7.30;;;;;;;3.28;85.95;97909.94;5037677;28;20056;-81
2021/12/04 14:53:13;;;;;;;13.40;8.55;;;;;;;3.29;86.58;97914.22;5049039;28;20129;-81
2021/12/04 14:55:42;;;;;;;26.10;13.45;;;;;;;3.32;86.42;97916.56;5023997;28;20052;-81
2021/12/04 14:58:13;;;;;;;33.55;16.25;;;;;;;3.31;86.29;97917.50;5038604;28;20072;-81
2021/12/04 15:00:50;;;;;;;34.88;16.70;;;;;;;3.29;86.39;97925.53;5018411;28;20042;-81
2021/12/04 15:03:28;;;;;;;46.28;22.00;;;;;;;3.31;86.34;97931.47;5021746;28;20053;-81
2021/12/04 15:06:02;;;;;;;36.67;17.83;;;;;;;3.29;86.54;97940.47;5049339;28;20045;-81
2021/12/04 15:08:32;;;;;;;54.75;25.60;;;;;;;3.23;88.49;97961.03;5018554;28;20497;-81